Time;durP1;ratioP1;P1;durP2;ratioP2;P2;SDS_P1;SDS_P2;PMS_P1;PMS_P2;Temp;Humidity;BMP_temperature;BMP_pressure;BME280_temperature;BME280_humidity;BME280_pressure;Samples;Min_cycle;Max_cycle;Signal;HPM_P1;HPM_P2
2021/06/19 00:00:53;;;;;;;1999.90;999.90;;;9.20;99.90;;;;;;6125951;23;20155;-44
2021/06/19 00:03:21;;;;;;;1999.90;999.90;;;9.10;99.90;;;;;;6126685;23;20217;-45
2021/06/19 00:05:47;;;;;;;1999.90;999.90;;;9.00;99.90;;;;;;6127785;23;20617;-48
2021/06/19 00:08:14;;;;;;;1999.90;999.90;;;9.00;99.90;;;;;;6127834;23;20199;-47
2021/06/19 00:10:42;;;;;;;1999.90;999.90;;;9.00;99.90;;;;;;6127720;23;20147;-46
2021/06/19 00:13:09;;;;;;;1999.90;999.90;;;9.00;99.90;;;;;;6127584;23;20206;-47
2021/06/19 00:15:36;;;;;;;1999.90;999.90;;;9.00;99.90;;;;;;6127641;23;20152;-45
2021/06/19 00:18:04;;;;;;;1999.90;999.90;;;8.90;99.90;;;;;;6127744;23;20238;-45
2021/06/19 00:20:30;;;;;;;1999.90;999.90;;;8.90;99.90;;;;;;6127558;23;20143;-44
2021/06/19 00:22:57;;;;;;;1999.90;999.90;;;8.90;99.90;;;;;;6127592;23;20154;-45
2021/06/19 00:25:26;;;;;;;1999.90;999.90;;;8.90;99.90;;;;;;6127619;23;20156;-45
2021/06/19 00:27:53;;;;;;;1999.90;999.90;;;8.80;99.90;;;;;;6127505;23;20621;-45
2021/06/19 00:30:21;;;;;;;1999.90;999.90;;;8.80;99.90;;;;;;6127475;23;20147;-44
2021/06/19 00:32:51;;;;;;;1999.90;999.90;;;8.90;99.90;;;;;;6127477;23;20154;-44
2021/06/19 00:35:20;;;;;;;1999.90;999.90;;;8.90;99.90;;;;;;6127497;23;20574;-47
2021/06/19 00:37:49;;;;;;;1999.90;999.90;;;8.70;99.90;;;;;;6127433;23;20146;-45
2021/06/19 00:40:18;;;;;;;1999.90;999.90;;;8.60;99.90;;;;;;6127316;23;20203;-45
2021/06/19 00:43:02;;;;;;;1999.90;999.90;;;8.40;99.90;;;;;;6127338;23;20213;-46
2021/06/19 00:45:32;;;;;;;1999.90;999.90;;;8.50;99.90;;;;;;6127382;23;20598;-46
2021/06/19 00:47:59;;;;;;;1999.90;999.90;;;8.40;99.90;;;;;;6127409;23;20166;-45
2021/06/19 00:50:27;;;;;;;1999.90;999.90;;;8.40;99.90;;;;;;6127431;23;20147;-45
2021/06/19 00:52:55;;;;;;;1999.90;999.90;;;8.30;99.90;;;;;;6127050;23;20528;-45
2021/06/19 00:55:22;;;;;;;1999.90;999.90;;;8.40;99.90;;;;;;6127188;23;20158;-47
2021/06/19 00:57:49;;;;;;;1999.90;999.90;;;8.40;99.90;;;;;;6127302;23;20150;-45
2021/06/19 01:00:17;;;;;;;1999.90;999.90;;;8.50;99.90;;;;;;6127149;23;20303;-44
2021/06/19 01:02:44;;;;;;;1999.90;999.90;;;8.60;99.90;;;;;;6127370;23;20602;-45
2021/06/19 01:05:11;;;;;;;1999.90;999.90;;;8.70;99.90;;;;;;6127331;23;20250;-49
2021/06/19 01:07:38;;;;;;;1999.90;999.90;;;8.60;99.90;;;;;;6127330;23;20217;-45
2021/06/19 01:10:06;;;;;;;1999.90;999.90;;;8.60;99.90;;;;;;6127307;23;20174;-46
2021/06/19 01:12:34;;;;;;;1999.90;999.90;;;8.50;99.90;;;;;;6127268;23;20154;-45
2021/06/19 01:15:01;;;;;;;1999.90;999.90;;;8.40;99.90;;;;;;6127247;23;20146;-45
2021/06/19 01:17:28;;;;;;;1999.90;999.90;;;8.40;99.90;;;;;;6127183;23;20634;-45
2021/06/19 01:20:06;;;;;;;1999.90;999.90;;;8.40;99.90;;;;;;6127172;23;20157;-47
2021/06/19 01:22:34;;;;;;;1999.90;999.90;;;8.50;99.90;;;;;;6101384;23;20165;-44
2021/06/19 01:25:03;;;;;;;1999.90;999.90;;;8.50;99.90;;;;;;6127093;23;20156;-45
2021/06/19 01:27:31;;;;;;;1999.90;999.90;;;8.40;99.90;;;;;;6127015;23;20186;-44
2021/06/19 01:30:00;;;;;;;1999.90;999.90;;;8.50;99.90;;;;;;6100938;23;20155;-44
2021/06/19 01:32:29;;;;;;;1999.90;999.90;;;8.50;99.90;;;;;;6127043;23;20175;-45
2021/06/19 01:34:56;;;;;;;1999.90;999.90;;;8.50;99.90;;;;;;6126960;23;20234;-45
2021/06/19 01:37:23;;;;;;;1999.90;999.90;;;8.50;99.90;;;;;;6127068;23;20147;-45
2021/06/19 01:39:50;;;;;;;1999.90;999.90;;;8.50;99.90;;;;;;6126929;23;20155;-45
2021/06/19 01:42:17;;;;;;;1999.90;999.90;;;8.50;99.90;;;;;;6126980;23;20535;-45
2021/06/19 01:44:43;;;;;;;1999.90;999.90;;;8.50;99.90;;;;;;6127030;23;20157;-47
2021/06/19 01:47:10;;;;;;;1999.90;999.90;;;8.50;99.90;;;;;;6126876;23;20181;-46
2021/06/19 01:49:38;;;;;;;1999.90;999.90;;;8.50;99.90;;;;;;6126869;23;20471;-46
2021/06/19 01:52:05;;;;;;;1999.90;999.90;;;8.50;99.90;;;;;;6126806;23;20235;-46
2021/06/19 01:54:39;;;;;;;1999.90;999.90;;;8.50;99.90;;;;;;6126689;23;20645;-48
2021/06/19 01:57:08;;;;;;;1999.90;999.90;;;8.60;99.90;;;;;;6126822;23;20143;-46
2021/06/19 01:59:35;;;;;;;1999.90;999.90;;;8.50;99.90;;;;;;6126779;23;20210;-47
2021/06/19 02:02:03;;;;;;;1999.90;999.90;;;8.50;99.90;;;;;;6126647;23;20154;-44
2021/06/19 02:04:34;;;;;;;1999.90;999.90;;;8.40;99.90;;;;;;6126687;23;20148;-45
2021/06/19 02:07:01;;;;;;;1999.90;999.90;;;8.50;99.90;;;;;;6126483;23;20179;-47
2021/06/19 02:09:28;;;;;;;1999.90;999.90;;;8.40;99.90;;;;;;6126573;23;20214;-45
2021/06/19 02:11:54;;;;;;;1999.90;999.90;;;8.40;99.90;;;;;;6126716;23;20157;-47
2021/06/19 02:14:21;;;;;;;1999.90;999.90;;;8.40;99.90;;;;;;6126599;23;20146;-46
2021/06/19 02:16:48;;;;;;;1999.90;999.90;;;8.30;99.90;;;;;;6126591;23;20199;-45
2021/06/19 02:19:15;;;;;;;1999.90;999.90;;;8.30;99.90;;;;;;6126792;23;20146;-46
2021/06/19 02:21:42;;;;;;;1999.90;999.90;;;8.30;99.90;;;;;;6126717;23;20155;-44
2021/06/19 02:24:09;;;;;;;1999.90;999.90;;;8.30;99.90;;;;;;6126530;23;20581;-44
2021/06/19 02:26:35;;;;;;;1999.90;999.90;;;8.30;99.90;;;;;;6126148;23;20555;-47
2021/06/19 02:29:02;;;;;;;1999.90;999.90;;;8.20;99.90;;;;;;6126558;23;20146;-46
2021/06/19 02:31:29;;;;;;;1999.90;999.90;;;8.20;99.90;;;;;;6126480;23;20161;-47
2021/06/19 02:33:56;;;;;;;1999.90;999.90;;;8.10;99.90;;;;;;6126376;23;20450;-45
2021/06/19 02:36:23;;;;;;;1999.90;999.90;;;8.20;99.90;;;;;;6126509;23;20151;-45
2021/06/19 02:38:50;;;;;;;1999.90;999.90;;;8.20;99.90;;;;;;6126356;23;20181;-45
2021/06/19 02:41:17;;;;;;;1999.90;999.90;;;8.10;99.90;;;;;;6126377;23;20158;-45
2021/06/19 02:43:44;;;;;;;1999.90;999.90;;;8.20;99.90;;;;;;6126526;23;20657;-45
2021/06/19 02:46:11;;;;;;;1999.90;999.90;;;8.20;99.90;;;;;;6126130;23;20504;-44
2021/06/19 02:48:37;;;;;;;1999.90;999.90;;;8.20;99.90;;;;;;6126330;23;20151;-47
2021/06/19 02:51:04;;;;;;;1999.90;999.90;;;8.10;99.90;;;;;;6126263;23;20150;-44
2021/06/19 02:53:31;;;;;;;1999.90;999.90;;;8.20;99.90;;;;;;6126138;23;20183;-45
2021/06/19 02:55:58;;;;;;;1999.90;999.90;;;8.20;99.90;;;;;;6126370;23;20187;-45
2021/06/19 02:58:25;;;;;;;1999.90;999.90;;;8.20;99.90;;;;;;6126283;23;20158;-44
2021/06/19 03:00:53;;;;;;;1999.90;999.90;;;8.20;99.90;;;;;;6126261;23;20154;-45
2021/06/19 03:03:20;;;;;;;1999.90;999.90;;;8.10;99.90;;;;;;6126383;23;20151;-44
2021/06/19 03:05:48;;;;;;;1999.90;999.90;;;8.10;99.90;;;;;;6126157;23;20205;-45
2021/06/19 03:08:14;;;;;;;1999.90;999.90;;;8.10;99.90;;;;;;6126206;23;20158;-45
2021/06/19 03:10:41;;;;;;;1999.90;999.90;;;8.10;99.90;;;;;;6126137;23;20162;-47
2021/06/19 03:13:08;;;;;;;1999.90;999.90;;;8.10;99.90;;;;;;6126035;23;20485;-45
2021/06/19 03:15:35;;;;;;;1999.90;999.90;;;8.10;99.90;;;;;;6126089;23;20146;-47
2021/06/19 03:18:03;;;;;;;1999.90;999.90;;;8.00;99.90;;;;;;6126196;23;20155;-45
2021/06/19 03:20:30;;;;;;;1999.90;999.90;;;8.10;99.90;;;;;;6126133;23;20143;-45
2021/06/19 03:23:01;;;;;;;1999.90;999.90;;;8.20;99.90;;;;;;6126112;23;20158;-45
2021/06/19 03:25:31;;;;;;;1999.90;999.90;;;8.10;99.90;;;;;;6126197;23;20217;-45
2021/06/19 03:28:00;;;;;;;1999.90;999.90;;;8.10;99.90;;;;;;6126134;23;20155;-46
2021/06/19 03:30:29;;;;;;;1999.90;999.90;;;8.00;99.90;;;;;;6126040;23;20150;-44
2021/06/19 03:32:56;;;;;;;1999.90;999.90;;;8.00;99.90;;;;;;6125999;23;20157;-45
2021/06/19 03:35:24;;;;;;;1999.90;999.90;;;7.90;99.90;;;;;;6126030;23;20594;-45
2021/06/19 03:37:53;;;;;;;1999.90;999.90;;;7.90;99.90;;;;;;6126444;23;20153;-45
2021/06/19 03:40:21;;;;;;;1999.90;999.90;;;7.90;99.90;;;;;;6128227;23;20150;-45
2021/06/19 03:42:51;;;;;;;1999.90;999.90;;;7.80;99.90;;;;;;6128055;23;20220;-45
2021/06/19 03:45:21;;;;;;;1999.90;999.90;;;7.90;99.90;;;;;;6102168;23;20213;-45
2021/06/19 03:47:48;;;;;;;1999.90;999.90;;;7.80;99.90;;;;;;6127847;23;20516;-45
2021/06/19 03:50:18;;;;;;;1999.90;999.90;;;7.80;99.90;;;;;;6127877;23;20224;-44
2021/06/19 03:52:45;;;;;;;1999.90;999.90;;;7.90;99.90;;;;;;6127675;23;20202;-47
2021/06/19 03:55:13;;;;;;;1999.90;999.90;;;7.90;99.90;;;;;;6127993;23;20166;-46
2021/06/19 03:57:40;;;;;;;1999.90;999.90;;;7.80;99.90;;;;;;6127898;23;20456;-47
2021/06/19 04:00:13;;;;;;;1999.90;999.90;;;7.80;99.90;;;;;;6127834;23;20154;-45
2021/06/19 04:02:41;;;;;;;1999.90;999.90;;;7.70;99.90;;;;;;6128013;23;20146;-44
2021/06/19 04:05:09;;;;;;;1999.90;999.90;;;7.80;99.90;;;;;;6127766;23;20152;-44
2021/06/19 04:07:36;;;;;;;1999.90;999.90;;;7.70;99.90;;;;;;6127728;23;20189;-45
2021/06/19 04:10:05;;;;;;;1999.90;999.90;;;7.70;99.90;;;;;;6101832;23;20164;-45
2021/06/19 04:12:32;;;;;;;1999.90;999.90;;;7.70;99.90;;;;;;6127601;23;20161;-47
2021/06/19 04:14:59;;;;;;;1999.90;999.90;;;7.70;99.90;;;;;;6127779;23;20146;-46
2021/06/19 04:17:26;;;;;;;1999.90;999.90;;;7.60;99.90;;;;;;6127833;23;20602;-44
2021/06/19 04:19:53;;;;;;;1999.90;999.90;;;7.60;99.90;;;;;;6127755;23;20147;-44
2021/06/19 04:22:19;;;;;;;1999.90;999.90;;;7.60;99.90;;;;;;6127704;23;20150;-45
2021/06/19 04:24:46;;;;;;;1999.90;999.90;;;7.60;99.90;;;;;;6127722;23;20153;-46
2021/06/19 04:27:16;;;;;;;1999.90;999.90;;;7.40;99.90;;;;;;6127542;23;20499;-43
2021/06/19 04:29:43;;;;;;;1999.90;999.90;;;7.40;99.90;;;;;;6127616;23;20150;-49
2021/06/19 04:32:11;;;;;;;1999.90;999.90;;;7.50;99.90;;;;;;6127729;23;20149;-45
2021/06/19 04:34:43;;;;;;;1999.90;999.90;;;7.60;99.90;;;;;;6127457;23;20153;-46
2021/06/19 04:37:15;;;;;;;1999.90;999.90;;;7.60;99.90;;;;;;6127646;23;20134;-47
2021/06/19 04:39:54;;;;;;;1999.90;999.90;;;7.70;99.90;;;;;;6127534;23;20154;-47
2021/06/19 04:42:23;;;;;;;1999.90;999.90;;;7.70;99.90;;;;;;6127466;23;20150;-43
2021/06/19 04:47:20;;;;;;;1999.90;999.90;;;7.80;99.90;;;;;;6127519;23;20558;-43
2021/06/19 04:49:47;;;;;;;1999.90;999.90;;;7.80;99.90;;;;;;6127244;23;20609;-43
2021/06/19 04:52:13;;;;;;;1999.90;999.90;;;7.80;99.90;;;;;;6127221;23;20233;-44
2021/06/19 04:54:40;;;;;;;1999.90;999.90;;;7.80;99.90;;;;;;6127484;23;20150;-44
2021/06/19 04:57:08;;;;;;;1999.90;999.90;;;7.70;99.90;;;;;;6127400;23;20277;-43
2021/06/19 04:59:37;;;;;;;1999.90;999.90;;;7.80;99.90;;;;;;6127436;23;20605;-47
2021/06/19 05:02:04;;;;;;;1999.90;999.90;;;7.70;99.90;;;;;;6127341;23;20154;-46
2021/06/19 05:04:31;;;;;;;1999.90;999.90;;;7.70;99.90;;;;;;6127183;23;20162;-43
2021/06/19 05:06:58;;;;;;;1999.90;999.90;;;7.60;99.90;;;;;;6127354;23;20192;-46
2021/06/19 05:09:24;;;;;;;1999.90;999.90;;;7.60;99.90;;;;;;6127273;23;20229;-46
2021/06/19 05:11:51;;;;;;;1999.90;999.90;;;7.60;99.90;;;;;;6127324;23;20493;-44
2021/06/19 05:14:19;;;;;;;1999.90;999.90;;;7.60;99.90;;;;;;6127179;23;20578;-46
2021/06/19 05:16:46;;;;;;;1999.90;999.90;;;7.70;99.90;;;;;;6127178;23;20591;-46
2021/06/19 05:19:13;;;;;;;1999.90;999.90;;;7.70;99.90;;;;;;6127030;23;20163;-46
2021/06/19 05:21:41;;;;;;;1999.90;999.90;;;7.70;99.90;;;;;;6127038;23;20165;-46
2021/06/19 05:24:08;;;;;;;1999.90;999.90;;;7.70;99.90;;;;;;6127106;23;20194;-45
2021/06/19 05:26:36;;;;;;;1999.90;999.90;;;7.70;99.90;;;;;;6126813;23;20194;-46
2021/06/19 05:29:02;;;;;;;1999.90;999.90;;;7.70;99.90;;;;;;6127061;23;20157;-46
2021/06/19 05:31:29;;;;;;;1999.90;999.90;;;7.70;99.90;;;;;;6127212;23;20170;-46
2021/06/19 05:33:56;;;;;;;1999.90;999.90;;;7.80;99.90;;;;;;6127034;23;20151;-45
2021/06/19 05:36:23;;;;;;;1999.90;999.90;;;7.90;99.90;;;;;;6101034;23;20161;-45
2021/06/19 05:38:51;;;;;;;1999.90;999.90;;;7.90;99.90;;;;;;6126975;23;20155;-45
2021/06/19 05:41:18;;;;;;;1999.90;999.90;;;8.00;99.90;;;;;;6126952;23;20607;-45
2021/06/19 05:43:45;;;;;;;1999.90;999.90;;;8.10;99.90;;;;;;6126843;23;20233;-46
2021/06/19 05:46:11;;;;;;;1999.90;999.90;;;8.20;99.90;;;;;;6126755;23;20182;-44
2021/06/19 05:48:38;;;;;;;1999.90;999.90;;;8.20;99.90;;;;;;6100911;23;20458;-44
2021/06/19 05:51:05;;;;;;;1999.90;999.90;;;8.10;99.90;;;;;;6126711;23;20165;-44
2021/06/19 05:53:32;;;;;;;1999.90;999.90;;;8.00;99.90;;;;;;6126793;23;20193;-44
2021/06/19 05:55:59;;;;;;;1999.90;999.90;;;7.90;99.90;;;;;;6127061;23;20229;-44
2021/06/19 05:58:26;;;;;;;1999.90;999.90;;;7.90;99.90;;;;;;6126770;23;20593;-44
2021/06/19 06:00:53;;;;;;;1999.90;999.90;;;7.90;99.90;;;;;;6126297;23;20186;-44
2021/06/19 06:03:20;;;;;;;1999.90;999.90;;;7.90;99.90;;;;;;6126748;23;20157;-49
2021/06/19 06:05:47;;;;;;;1999.90;999.90;;;7.90;99.90;;;;;;6126686;23;20183;-45
2021/06/19 06:08:13;;;;;;;1999.90;999.90;;;8.00;99.90;;;;;;6126801;23;20256;-46
2021/06/19 06:10:41;;;;;;;1999.90;999.90;;;7.90;99.90;;;;;;6126714;23;20150;-46
2021/06/19 06:13:08;;;;;;;1999.90;999.90;;;8.00;99.90;;;;;;6126710;23;20149;-45
2021/06/19 06:15:35;;;;;;;1999.90;999.90;;;8.00;99.90;;;;;;6126868;23;20154;-45
2021/06/19 06:18:02;;;;;;;1999.90;999.90;;;8.00;99.90;;;;;;6126756;23;20154;-45
2021/06/19 06:20:28;;;;;;;1999.90;999.90;;;8.00;99.90;;;;;;6126570;23;20146;-51
2021/06/19 06:22:55;;;;;;;1999.90;999.90;;;8.00;99.90;;;;;;6126656;23;20155;-46
2021/06/19 06:25:22;;;;;;;1999.90;999.90;;;8.00;99.90;;;;;;6126435;23;20539;-49
2021/06/19 06:27:49;;;;;;;1999.90;999.90;;;8.20;99.90;;;;;;6126477;23;20613;-45
2021/06/19 06:30:17;;;;;;;1999.90;999.90;;;8.50;99.90;;;;;;6126483;23;20150;-45
2021/06/19 06:32:44;;;;;;;1999.90;999.90;;;8.50;99.90;;;;;;6126257;23;20159;-46
2021/06/19 06:35:11;;;;;;;1999.90;999.90;;;8.60;99.90;;;;;;6126441;23;20150;-45
2021/06/19 06:37:39;;;;;;;1999.90;999.90;;;8.60;99.90;;;;;;6126446;23;20202;-47
2021/06/19 06:40:08;;;;;;;1999.90;999.90;;;8.60;99.90;;;;;;6126384;23;20158;-46
2021/06/19 06:42:39;;;;;;;1999.90;999.90;;;8.70;99.90;;;;;;6126412;23;20613;-49
2021/06/19 06:45:10;;;;;;;1999.90;999.90;;;8.80;99.90;;;;;;6126725;23;20222;-45
2021/06/19 06:47:39;;;;;;;1999.90;999.90;;;8.80;99.90;;;;;;6126224;23;20260;-45
2021/06/19 06:50:07;;;;;;;1999.90;999.90;;;8.90;99.90;;;;;;6126407;23;20230;-45
2021/06/19 06:52:35;;;;;;;1999.90;999.90;;;9.00;99.90;;;;;;6125952;23;20233;-46
2021/06/19 06:55:04;;;;;;;1999.90;999.90;;;9.00;99.90;;;;;;6125833;23;20143;-45
2021/06/19 06:57:30;;;;;;;1999.90;999.90;;;9.10;99.90;;;;;;6125824;23;20143;-45
2021/06/19 07:00:00;;;;;;;1999.90;999.90;;;9.40;99.90;;;;;;6125727;23;20178;-45
2021/06/19 07:02:29;;;;;;;1999.90;999.90;;;9.60;99.90;;;;;;6125827;23;20158;-45
2021/06/19 07:04:56;;;;;;;1999.90;999.90;;;9.60;99.90;;;;;;6125883;23;20222;-45
2021/06/19 07:07:23;;;;;;;1999.90;999.90;;;9.70;99.90;;;;;;6125574;23;20242;-46
2021/06/19 07:09:50;;;;;;;1999.90;999.90;;;9.90;99.90;;;;;;6125710;23;20143;-46
2021/06/19 07:12:17;;;;;;;1999.90;999.90;;;10.10;99.90;;;;;;6125723;23;20147;-46
2021/06/19 07:14:44;;;;;;;1999.90;999.90;;;10.30;99.90;;;;;;6125771;23;20218;-46
2021/06/19 07:17:11;;;;;;;1999.90;999.90;;;10.40;99.90;;;;;;6125694;23;20181;-46
2021/06/19 07:19:41;;;;;;;1999.90;999.90;;;10.60;99.90;;;;;;6125629;23;20155;-45
2021/06/19 07:22:09;;;;;;;1999.90;999.90;;;10.70;99.90;;;;;;6125844;23;20171;-51
2021/06/19 07:24:36;;;;;;;1999.90;999.90;;;10.80;99.90;;;;;;6126029;23;20182;-45
2021/06/19 07:27:04;;;;;;;1999.90;999.90;;;10.80;99.90;;;;;;6125401;23;20642;-45
2021/06/19 07:29:31;;;;;;;1999.90;999.90;;;11.00;99.90;;;;;;6125645;23;20588;-47
2021/06/19 07:31:59;;;;;;;1999.90;999.90;;;11.10;99.90;;;;;;6125548;23;20151;-45
2021/06/19 07:34:27;;;;;;;1999.90;999.90;;;11.20;99.90;;;;;;6125646;23;20601;-45
2021/06/19 07:36:54;;;;;;;1999.90;999.90;;;11.20;99.90;;;;;;6125474;23;20178;-45
2021/06/19 07:39:21;;;;;;;1999.90;999.90;;;11.20;99.90;;;;;;6125458;23;20154;-45
2021/06/19 07:41:48;;;;;;;1999.90;999.90;;;11.40;99.90;;;;;;6125538;23;20171;-49
2021/06/19 07:44:15;;;;;;;1999.90;999.90;;;11.40;99.90;;;;;;6125414;23;20171;-50
2021/06/19 07:46:42;;;;;;;1999.90;999.90;;;11.60;99.90;;;;;;6125496;23;20186;-50
2021/06/19 07:49:09;;;;;;;1999.90;999.90;;;11.60;99.90;;;;;;6125261;23;20254;-52
2021/06/19 07:51:36;;;;;;;1999.90;999.90;;;11.70;99.90;;;;;;6125628;23;20238;-51
2021/06/19 07:54:03;;;;;;;1999.90;999.90;;;12.00;99.90;;;;;;6125540;23;20187;-51
2021/06/19 07:56:30;;;;;;;1999.90;999.90;;;12.10;99.90;;;;;;6125873;23;20155;-49
2021/06/19 07:58:57;;;;;;;1999.90;999.90;;;12.10;99.90;;;;;;6125851;23;20144;-54
2021/06/19 08:01:24;;;;;;;1999.90;999.90;;;12.20;99.90;;;;;;6125741;23;20583;-52
2021/06/19 08:03:51;;;;;;;1999.90;999.90;;;12.40;99.90;;;;;;6125579;23;20156;-49
2021/06/19 08:06:18;;;;;;;1999.90;999.90;;;12.50;99.90;;;;;;6125453;23;20230;-51
2021/06/19 08:08:45;;;;;;;1999.90;999.90;;;12.80;99.90;;;;;;6125549;23;20147;-47
2021/06/19 08:11:13;;;;;;;1999.90;999.90;;;12.90;99.90;;;;;;6125664;23;20147;-48
2021/06/19 08:13:40;;;;;;;1999.90;999.90;;;13.00;99.90;;;;;;6125829;23;20154;-48
2021/06/19 08:16:10;;;;;;;1999.90;999.90;;;13.20;99.90;;;;;;6125368;23;20514;-53
2021/06/19 08:18:37;;;;;;;1999.90;999.90;;;13.40;99.90;;;;;;6125062;23;20159;-52
2021/06/19 08:21:04;;;;;;;1999.90;999.90;;;13.60;99.90;;;;;;6125473;23;20293;-51
2021/06/19 08:23:31;;;;;;;1999.90;999.90;;;13.70;99.90;;;;;;6125239;23;20161;-48
2021/06/19 08:25:58;;;;;;;1999.90;999.90;;;13.80;99.90;;;;;;6127056;23;20152;-50
2021/06/19 08:28:25;;;;;;;1999.90;999.90;;;13.90;99.90;;;;;;6127051;23;20462;-48
2021/06/19 08:30:52;;;;;;;1999.90;999.90;;;14.10;99.90;;;;;;6126999;23;20147;-49
2021/06/19 08:33:19;;;;;;;1999.90;999.90;;;14.20;99.90;;;;;;6127062;23;20662;-50
2021/06/19 08:35:46;;;;;;;1999.90;999.90;;;14.30;99.90;;;;;;6127349;23;20164;-50
2021/06/19 08:38:13;;;;;;;1999.90;999.90;;;14.50;99.90;;;;;;6127331;23;20148;-52
2021/06/19 08:40:40;;;;;;;1999.90;999.90;;;14.60;99.90;;;;;;6127214;23;20282;-51
2021/06/19 08:43:07;;;;;;;1999.90;999.90;;;14.70;99.90;;;;;;6126981;23;20612;-52
2021/06/19 08:45:35;;;;;;;1999.90;999.90;;;14.90;99.90;;;;;;6126837;23;20178;-48
2021/06/19 08:48:03;;;;;;;1999.90;999.90;;;15.00;99.90;;;;;;6126998;23;20657;-47
2021/06/19 08:50:31;;;;;;;1999.90;999.90;;;15.10;99.90;;;;;;6127050;23;20153;-51
2021/06/19 08:52:59;;;;;;;1999.90;999.90;;;15.30;99.90;;;;;;6126474;23;20190;-48
2021/06/19 08:55:27;;;;;;;1999.90;999.90;;;15.40;99.90;;;;;;6126989;23;20165;-47
2021/06/19 08:57:54;;;;;;;1999.90;999.90;;;15.60;99.90;;;;;;6126969;23;20610;-51
2021/06/19 09:00:21;;;;;;;1999.90;999.90;;;15.80;99.90;;;;;;6126949;23;20147;-52
2021/06/19 09:02:51;;;;;;;1999.90;999.90;;;16.00;99.90;;;;;;6126967;23;20275;-50
2021/06/19 09:05:28;;;;;;;1999.90;999.90;;;16.10;99.90;;;;;;6126976;23;20151;-51
2021/06/19 09:07:58;;;;;;;1999.90;999.90;;;16.30;99.90;;;;;;6126851;23;20603;-50
2021/06/19 09:10:29;;;;;;;1999.90;999.90;;;16.40;99.90;;;;;;6126962;23;20482;-53
2021/06/19 09:13:12;;;;;;;1999.90;999.90;;;16.60;99.90;;;;;;6126752;23;20151;-52
2021/06/19 09:15:39;;;;;;;1999.90;999.90;;;16.70;99.60;;;;;;6126747;23;20136;-50
2021/06/19 09:18:23;;;;;;;1999.90;999.90;;;16.80;99.10;;;;;;6126905;23;20144;-48
2021/06/19 09:20:59;;;;;;;1999.90;999.90;;;16.90;97.60;;;;;;6126782;23;20438;-46
2021/06/19 09:23:27;;;;;;;1999.90;999.90;;;17.00;97.20;;;;;;6126331;23;20150;-47
2021/06/19 09:26:28;;;;;;;1999.90;999.90;;;17.20;95.50;;;;;;6126672;23;20162;-48
2021/06/19 09:29:06;;;;;;;1999.90;999.90;;;17.40;95.90;;;;;;6126147;23;20541;-51
2021/06/19 09:31:43;;;;;;;1999.90;999.90;;;17.60;95.90;;;;;;6126359;23;20198;-48
2021/06/19 09:34:15;;;;;;;1999.90;999.90;;;17.80;95.00;;;;;;6126063;23;20147;-49
2021/06/19 09:36:52;;;;;;;1999.90;999.90;;;18.00;95.60;;;;;;6125478;23;20144;-51
2021/06/19 09:39:30;;;;;;;1999.90;999.90;;;18.10;94.20;;;;;;6126466;23;20146;-50
2021/06/19 09:42:01;;;;;;;1999.90;999.90;;;18.40;94.60;;;;;;6126158;23;20284;-47
2021/06/19 09:44:48;;;;;;;1999.90;999.90;;;18.60;93.10;;;;;;6126072;23;20158;-48
2021/06/19 09:47:19;;;;;;;1999.90;999.90;;;18.70;92.00;;;;;;6126176;23;20191;-52
2021/06/19 09:49:48;;;;;;;1999.90;999.90;;;18.90;86.60;;;;;;6126607;23;20136;-49
2021/06/19 09:52:26;;;;;;;1999.90;999.90;;;19.00;82.80;;;;;;6125952;23;20172;-47
2021/06/19 09:54:58;;;;;;;1999.90;999.90;;;19.20;74.80;;;;;;6126451;23;20610;-49
2021/06/19 09:57:42;;;;;;;1999.90;999.90;;;19.40;71.90;;;;;;6126562;23;20150;-50
2021/06/19 10:00:10;;;;;;;1999.90;999.90;;;19.60;63.00;;;;;;6126368;23;20136;-52
2021/06/19 10:02:38;;;;;;;1999.90;999.90;;;19.80;61.20;;;;;;6100255;23;20152;-53
2021/06/19 10:05:06;;;;;;;1999.90;999.90;;;19.90;59.50;;;;;;6126223;23;20595;-48
2021/06/19 10:07:34;;;;;;;1999.90;999.90;;;20.10;58.30;;;;;;6126380;23;20384;-50
2021/06/19 10:10:06;;;;;;;1999.90;999.90;;;20.20;59.30;;;;;;6126277;23;20155;-54
2021/06/19 10:12:35;;;;;;;1999.90;999.90;;;20.50;58.90;;;;;;6126443;23;20147;-47
2021/06/19 10:15:13;;;;;;;1999.90;999.90;;;20.60;56.00;;;;;;6126428;23;20144;-53
2021/06/19 10:17:42;;;;;;;1999.90;999.90;;;20.70;57.70;;;;;;6126431;23;20139;-49
2021/06/19 10:20:12;;;;;;;1999.90;999.90;;;20.80;56.10;;;;;;6126255;23;20143;-53
2021/06/19 10:22:41;;;;;;;1999.90;999.90;;;20.90;55.60;;;;;;6125771;23;20487;-48
2021/06/19 10:25:10;;;;;;;1999.90;999.90;;;21.00;54.30;;;;;;6125602;23;20178;-52
2021/06/19 10:27:46;;;;;;;1999.90;999.90;;;21.10;55.60;;;;;;6125907;23;20230;-48
2021/06/19 10:30:14;;;;;;;1999.90;999.90;;;21.30;53.50;;;;;;6126188;23;20142;-52
2021/06/19 10:32:51;;;;;;;1999.90;999.90;;;21.40;53.10;;;;;;6125918;23;20155;-53
2021/06/19 10:35:21;;;;;;;1999.90;999.90;;;21.60;56.00;;;;;;6125978;23;20189;-50
2021/06/19 10:37:50;;;;;;;1999.90;999.90;;;21.80;54.40;;;;;;6125985;23;20155;-49
2021/06/19 10:40:28;;;;;;;1999.90;999.90;;;22.00;55.80;;;;;;6125871;23;20758;-49
2021/06/19 10:43:13;;;;;;;1999.90;999.90;;;22.20;56.40;;;;;;6126018;23;20143;-50
2021/06/19 10:45:45;;;;;;;1999.90;999.90;;;22.30;54.30;;;;;;6126018;23;20154;-48
2021/06/19 10:48:14;;;;;;;1999.90;999.90;;;22.50;53.20;;;;;;6125544;23;20187;-50
2021/06/19 10:50:47;;;;;;;1999.90;999.90;;;22.60;53.50;;;;;;6126320;23;20162;-50
2021/06/19 10:53:15;;;;;;;1999.90;999.90;;;22.70;52.80;;;;;;6101269;23;20203;-53
2021/06/19 10:55:45;;;;;;;1999.90;999.90;;;22.80;53.40;;;;;;6125835;23;20163;-52
2021/06/19 10:58:24;;;;;;;1999.90;999.90;;;22.80;51.70;;;;;;6126043;23;20619;-47
2021/06/19 11:01:01;;;;;;;1999.90;999.90;;;22.90;50.00;;;;;;6126306;23;20488;-50
2021/06/19 11:03:49;;;;;;;1999.90;999.90;;;22.90;50.90;;;;;;6126135;23;20151;-49
2021/06/19 11:06:36;;;;;;;1999.90;999.90;;;23.00;51.70;;;;;;6125345;23;20178;-50
2021/06/19 11:09:16;;;;;;;1999.90;999.90;;;23.00;51.70;;;;;;6126171;23;20218;-48
2021/06/19 11:11:50;;;;;;;1999.90;999.90;;;23.00;51.00;;;;;;6125720;23;20148;-49
2021/06/19 11:14:42;;;;;;;1999.90;999.90;;;23.00;51.90;;;;;;6125577;23;20146;-46
2021/06/19 11:17:15;;;;;;;1999.90;999.90;;;23.20;50.40;;;;;;6125899;23;20186;-48
2021/06/19 11:19:48;;;;;;;1999.90;999.90;;;23.30;49.60;;;;;;6125750;23;20575;-49
2021/06/19 11:22:34;;;;;;;1999.90;999.90;;;23.40;50.10;;;;;;6126022;23;20583;-52
2021/06/19 11:25:19;;;;;;;1999.90;999.90;;;23.40;50.40;;;;;;6126221;23;20166;-52
2021/06/19 11:27:55;;;;;;;1999.90;999.90;;;23.40;50.70;;;;;;6125721;23;20607;-47
2021/06/19 11:30:37;;;;;;;1999.90;999.90;;;23.60;50.80;;;;;;6125659;23;20225;-46
2021/06/19 11:35:58;;;;;;;1999.90;999.90;;;24.00;47.00;;;;;;6125735;23;20159;-49
2021/06/19 11:38:42;;;;;;;1999.90;999.90;;;24.10;46.70;;;;;;6125787;23;20191;-51
2021/06/19 11:41:13;;;;;;;1999.90;999.90;;;24.20;49.30;;;;;;6126157;23;20150;-47
2021/06/19 11:43:41;;;;;;;1999.90;999.90;;;24.40;43.60;;;;;;6125829;23;20170;-47
2021/06/19 11:46:08;;;;;;;1999.90;999.90;;;24.50;47.00;;;;;;6125680;23;20159;-47
2021/06/19 11:48:56;;;;;;;1999.90;999.90;;;24.60;45.40;;;;;;6125796;23;20159;-47
2021/06/19 11:51:25;;;;;;;1999.90;999.90;;;24.80;42.10;;;;;;6126008;23;20143;-47
2021/06/19 11:53:53;;;;;;;1999.90;999.90;;;24.80;40.30;;;;;;6125643;23;20322;-52
2021/06/19 11:56:24;;;;;;;1999.90;999.90;;;24.90;39.00;;;;;;6099885;23;20152;-48
2021/06/19 11:59:05;;;;;;;1999.90;999.90;;;25.00;38.40;;;;;;6126367;23;20175;-51
2021/06/19 12:01:39;;;;;;;1999.90;999.90;;;25.00;38.60;;;;;;6128112;23;20143;-47
2021/06/19 12:04:21;;;;;;;1999.90;999.90;;;25.20;37.80;;;;;;6127750;23;20142;-50
2021/06/19 12:06:55;;;;;;;1999.90;999.90;;;25.30;36.00;;;;;;6127475;23;20187;-49
2021/06/19 12:09:25;;;;;;;1999.90;999.90;;;25.50;34.10;;;;;;6127755;23;20145;-47
2021/06/19 12:12:00;;;;;;;1999.90;999.90;;;25.60;32.70;;;;;;6127137;23;20155;-52
2021/06/19 12:14:29;;;;;;;1999.90;999.90;;;25.70;32.00;;;;;;6127598;23;20143;-48
2021/06/19 12:16:58;;;;;;;1999.90;999.90;;;25.70;33.00;;;;;;6127822;23;20163;-49
2021/06/19 12:19:28;;;;;;;1999.90;999.90;;;25.80;32.30;;;;;;6127609;23;20279;-48